sensor_id;sensor_type;location;lat;lon;timestamp;temperature;humidity
13742;DHT22;8461;52.356;10.704;2022-08-23T00:01:28;17.60;99.90
13742;DHT22;8461;52.356;10.704;2022-08-23T00:03:55;17.60;99.90
13742;DHT22;8461;52.356;10.704;2022-08-23T00:06:22;17.60;99.90
13742;DHT22;8461;52.356;10.704;2022-08-23T00:08:49;17.50;99.90
13742;DHT22;8461;52.356;10.704;2022-08-23T00:11:39;17.50;99.90
13742;DHT22;8461;52.356;10.704;2022-08-23T00:14:13;17.50;99.90
13742;DHT22;8461;52.356;10.704;2022-08-23T00:16:39;17.50;99.90
13742;DHT22;8461;52.356;10.704;2022-08-23T00:19:07;17.40;99.90
13742;DHT22;8461;52.356;10.704;2022-08-23T00:21:35;17.40;99.90
13742;DHT22;8461;52.356;10.704;2022-08-23T00:24:03;17.30;99.90
13742;DHT22;8461;52.356;10.704;2022-08-23T00:29:20;17.20;99.90
13742;DHT22;8461;52.356;10.704;2022-08-23T00:31:47;17.30;99.90
13742;DHT22;8461;52.356;10.704;2022-08-23T00:34:13;17.20;99.90
13742;DHT22;8461;52.356;10.704;2022-08-23T00:36:40;17.10;99.90
13742;DHT22;8461;52.356;10.704;2022-08-23T00:39:06;17.00;99.90
13742;DHT22;8461;52.356;10.704;2022-08-23T00:41:33;16.90;99.90
13742;DHT22;8461;52.356;10.704;2022-08-23T00:44:00;16.80;99.90
13742;DHT22;8461;52.356;10.704;2022-08-23T00:46:50;16.70;99.90
13742;DHT22;8461;52.356;10.704;2022-08-23T00:49:36;16.70;99.90
13742;DHT22;8461;52.356;10.704;2022-08-23T00:52:24;16.60;99.90
13742;DHT22;8461;52.356;10.704;2022-08-23T00:54:54;16.50;99.90
13742;DHT22;8461;52.356;10.704;2022-08-23T00:57:20;16.50;99.90
13742;DHT22;8461;52.356;10.704;2022-08-23T00:59:46;16.40;99.90
13742;DHT22;8461;52.356;10.704;2022-08-23T01:02:12;16.40;99.90
13742;DHT22;8461;52.356;10.704;2022-08-23T01:04:42;16.30;99.90
13742;DHT22;8461;52.356;10.704;2022-08-23T01:07:30;16.30;99.90
13742;DHT22;8461;52.356;10.704;2022-08-23T01:10:03;16.20;99.90
13742;DHT22;8461;52.356;10.704;2022-08-23T01:12:35;16.20;99.90
13742;DHT22;8461;52.356;10.704;2022-08-23T01:15:12;16.20;99.90
13742;DHT22;8461;52.356;10.704;2022-08-23T01:17:49;16.20;99.90
13742;DHT22;8461;52.356;10.704;2022-08-23T01:20:20;16.20;99.90
13742;DHT22;8461;52.356;10.704;2022-08-23T01:23:01;16.20;99.90
13742;DHT22;8461;52.356;10.704;2022-08-23T01:25:30;16.30;99.90
13742;DHT22;8461;52.356;10.704;2022-08-23T01:27:58;16.40;99.90
13742;DHT22;8461;52.356;10.704;2022-08-23T01:30:27;16.50;99.90
13742;DHT22;8461;52.356;10.704;2022-08-23T01:32:59;16.50;99.90
13742;DHT22;8461;52.356;10.704;2022-08-23T01:35:52;16.40;99.90
13742;DHT22;8461;52.356;10.704;2022-08-23T01:38:18;16.40;99.90
13742;DHT22;8461;52.356;10.704;2022-08-23T01:40:43;16.30;99.90
13742;DHT22;8461;52.356;10.704;2022-08-23T01:43:10;16.30;99.90
13742;DHT22;8461;52.356;10.704;2022-08-23T01:45:38;16.20;99.90
13742;DHT22;8461;52.356;10.704;2022-08-23T01:48:04;16.20;99.90
13742;DHT22;8461;52.356;10.704;2022-08-23T01:50:31;16.20;99.90
13742;DHT22;8461;52.356;10.704;2022-08-23T01:52:57;16.10;99.90
13742;DHT22;8461;52.356;10.704;2022-08-23T01:55:22;16.10;99.90
13742;DHT22;8461;52.356;10.704;2022-08-23T01:57:53;16.10;99.90
13742;DHT22;8461;52.356;10.704;2022-08-23T02:00:21;16.10;99.90
13742;DHT22;8461;52.356;10.704;2022-08-23T02:02:47;16.00;99.90
13742;DHT22;8461;52.356;10.704;2022-08-23T02:05:14;16.00;99.90
13742;DHT22;8461;52.356;10.704;2022-08-23T02:07:40;15.90;99.90
13742;DHT22;8461;52.356;10.704;2022-08-23T02:10:07;15.90;99.90
13742;DHT22;8461;52.356;10.704;2022-08-23T02:12:33;15.90;99.90
13742;DHT22;8461;52.356;10.704;2022-08-23T02:14:58;15.90;99.90
13742;DHT22;8461;52.356;10.704;2022-08-23T02:17:24;15.80;99.90
13742;DHT22;8461;52.356;10.704;2022-08-23T02:19:50;15.70;99.90
13742;DHT22;8461;52.356;10.704;2022-08-23T02:22:15;15.60;99.90
13742;DHT22;8461;52.356;10.704;2022-08-23T02:24:44;15.60;99.90
13742;DHT22;8461;52.356;10.704;2022-08-23T02:27:12;15.50;99.90
13742;DHT22;8461;52.356;10.704;2022-08-23T02:29:44;15.30;99.90
13742;DHT22;8461;52.356;10.704;2022-08-23T02:32:12;15.40;99.90
13742;DHT22;8461;52.356;10.704;2022-08-23T02:34:39;15.40;99.90
13742;DHT22;8461;52.356;10.704;2022-08-23T02:37:06;15.40;99.90
13742;DHT22;8461;52.356;10.704;2022-08-23T02:39:32;15.50;99.90
13742;DHT22;8461;52.356;10.704;2022-08-23T02:41:57;15.60;99.90
13742;DHT22;8461;52.356;10.704;2022-08-23T02:44:23;15.60;99.90
13742;DHT22;8461;52.356;10.704;2022-08-23T02:46:49;15.70;99.90
13742;DHT22;8461;52.356;10.704;2022-08-23T02:49:16;15.70;99.90
13742;DHT22;8461;52.356;10.704;2022-08-23T02:51:42;15.60;99.90
13742;DHT22;8461;52.356;10.704;2022-08-23T02:54:08;15.60;99.90
13742;DHT22;8461;52.356;10.704;2022-08-23T02:56:33;15.60;99.90
13742;DHT22;8461;52.356;10.704;2022-08-23T02:58:59;15.50;99.90
13742;DHT22;8461;52.356;10.704;2022-08-23T03:01:28;15.50;99.90
13742;DHT22;8461;52.356;10.704;2022-08-23T03:03:55;15.50;99.90
13742;DHT22;8461;52.356;10.704;2022-08-23T03:06:21;15.40;99.90
13742;DHT22;8461;52.356;10.704;2022-08-23T03:08:47;15.30;99.90
13742;DHT22;8461;52.356;10.704;2022-08-23T03:11:16;15.30;99.90
13742;DHT22;8461;52.356;10.704;2022-08-23T03:13:42;15.30;99.90
13742;DHT22;8461;52.356;10.704;2022-08-23T03:16:11;15.30;99.90
13742;DHT22;8461;52.356;10.704;2022-08-23T03:18:37;15.30;99.90
13742;DHT22;8461;52.356;10.704;2022-08-23T03:21:04;15.20;99.90
13742;DHT22;8461;52.356;10.704;2022-08-23T03:23:30;15.20;99.90
13742;DHT22;8461;52.356;10.704;2022-08-23T03:25:57;15.20;99.90
13742;DHT22;8461;52.356;10.704;2022-08-23T03:28:24;15.20;99.90
13742;DHT22;8461;52.356;10.704;2022-08-23T03:30:49;15.30;99.90
13742;DHT22;8461;52.356;10.704;2022-08-23T03:33:15;15.30;99.90
13742;DHT22;8461;52.356;10.704;2022-08-23T03:35:41;15.30;99.90
13742;DHT22;8461;52.356;10.704;2022-08-23T03:38:07;15.30;99.90
13742;DHT22;8461;52.356;10.704;2022-08-23T03:40:33;15.30;99.90
13742;DHT22;8461;52.356;10.704;2022-08-23T03:42:59;15.30;99.90
13742;DHT22;8461;52.356;10.704;2022-08-23T03:45:25;15.30;99.90
13742;DHT22;8461;52.356;10.704;2022-08-23T03:47:51;15.30;99.90
13742;DHT22;8461;52.356;10.704;2022-08-23T03:50:17;15.30;99.90
13742;DHT22;8461;52.356;10.704;2022-08-23T03:52:42;15.40;99.90
13742;DHT22;8461;52.356;10.704;2022-08-23T03:55:08;15.30;99.90
13742;DHT22;8461;52.356;10.704;2022-08-23T03:57:34;15.40;99.90
13742;DHT22;8461;52.356;10.704;2022-08-23T04:00:00;15.40;99.90
13742;DHT22;8461;52.356;10.704;2022-08-23T04:02:26;15.40;99.90
13742;DHT22;8461;52.356;10.704;2022-08-23T04:04:52;15.30;99.90
13742;DHT22;8461;52.356;10.704;2022-08-23T04:07:19;15.30;99.90
13742;DHT22;8461;52.356;10.704;2022-08-23T04:09:45;15.30;99.90
13742;DHT22;8461;52.356;10.704;2022-08-23T04:12:11;15.30;99.90
13742;DHT22;8461;52.356;10.704;2022-08-23T04:14:37;15.20;99.90
13742;DHT22;8461;52.356;10.704;2022-08-23T04:17:03;15.20;99.90
13742;DHT22;8461;52.356;10.704;2022-08-23T04:19:28;15.20;99.90
13742;DHT22;8461;52.356;10.704;2022-08-23T04:21:55;15.20;99.90
13742;DHT22;8461;52.356;10.704;2022-08-23T04:24:20;15.10;99.90
13742;DHT22;8461;52.356;10.704;2022-08-23T04:26:46;15.10;99.90
13742;DHT22;8461;52.356;10.704;2022-08-23T04:29:13;15.10;99.90
13742;DHT22;8461;52.356;10.704;2022-08-23T04:31:42;15.00;99.90
13742;DHT22;8461;52.356;10.704;2022-08-23T04:34:07;15.00;99.90
13742;DHT22;8461;52.356;10.704;2022-08-23T04:36:36;15.00;99.90
13742;DHT22;8461;52.356;10.704;2022-08-23T04:39:02;15.00;99.90
13742;DHT22;8461;52.356;10.704;2022-08-23T04:41:27;15.00;99.90
13742;DHT22;8461;52.356;10.704;2022-08-23T04:44:12;15.00;99.90
13742;DHT22;8461;52.356;10.704;2022-08-23T04:46:39;15.10;99.90
13742;DHT22;8461;52.356;10.704;2022-08-23T04:49:05;15.10;99.90
13742;DHT22;8461;52.356;10.704;2022-08-23T04:51:31;15.10;99.90
13742;DHT22;8461;52.356;10.704;2022-08-23T04:53:56;15.10;99.90
13742;DHT22;8461;52.356;10.704;2022-08-23T04:56:22;15.10;99.90
13742;DHT22;8461;52.356;10.704;2022-08-23T04:58:47;15.20;99.90
13742;DHT22;8461;52.356;10.704;2022-08-23T05:01:13;15.20;99.90
13742;DHT22;8461;52.356;10.704;2022-08-23T05:03:40;15.20;99.90
13742;DHT22;8461;52.356;10.704;2022-08-23T05:06:06;15.30;99.90
13742;DHT22;8461;52.356;10.704;2022-08-23T05:08:33;15.30;99.90
13742;DHT22;8461;52.356;10.704;2022-08-23T05:11:06;15.40;99.90
13742;DHT22;8461;52.356;10.704;2022-08-23T05:13:33;15.50;99.90
13742;DHT22;8461;52.356;10.704;2022-08-23T05:15:59;15.50;99.90
13742;DHT22;8461;52.356;10.704;2022-08-23T05:18:25;15.60;99.90
13742;DHT22;8461;52.356;10.704;2022-08-23T05:20:52;15.70;99.90
13742;DHT22;8461;52.356;10.704;2022-08-23T05:23:18;15.80;99.90
13742;DHT22;8461;52.356;10.704;2022-08-23T05:25:43;15.80;99.90
13742;DHT22;8461;52.356;10.704;2022-08-23T05:28:20;15.90;99.90
13742;DHT22;8461;52.356;10.704;2022-08-23T05:30:56;16.10;99.90
13742;DHT22;8461;52.356;10.704;2022-08-23T05:33:22;16.10;99.90
13742;DHT22;8461;52.356;10.704;2022-08-23T05:35:48;16.30;99.90
13742;DHT22;8461;52.356;10.704;2022-08-23T05:38:14;16.30;99.90
13742;DHT22;8461;52.356;10.704;2022-08-23T05:40:39;16.40;99.90
13742;DHT22;8461;52.356;10.704;2022-08-23T05:43:05;16.50;99.90
13742;DHT22;8461;52.356;10.704;2022-08-23T05:45:30;16.50;99.90
13742;DHT22;8461;52.356;10.704;2022-08-23T05:47:56;16.60;99.90
13742;DHT22;8461;52.356;10.704;2022-08-23T05:50:22;16.60;99.90
13742;DHT22;8461;52.356;10.704;2022-08-23T05:52:48;16.70;99.90
13742;DHT22;8461;52.356;10.704;2022-08-23T05:55:13;16.80;99.90
13742;DHT22;8461;52.356;10.704;2022-08-23T05:57:39;16.90;99.90
13742;DHT22;8461;52.356;10.704;2022-08-23T06:00:06;17.00;99.90
13742;DHT22;8461;52.356;10.704;2022-08-23T06:02:35;17.10;99.90
13742;DHT22;8461;52.356;10.704;2022-08-23T06:05:01;17.10;99.90
13742;DHT22;8461;52.356;10.704;2022-08-23T06:07:27;17.20;99.90
13742;DHT22;8461;52.356;10.704;2022-08-23T06:09:52;17.30;99.90
13742;DHT22;8461;52.356;10.704;2022-08-23T06:12:19;17.40;99.90
13742;DHT22;8461;52.356;10.704;2022-08-23T06:14:45;17.40;99.90
13742;DHT22;8461;52.356;10.704;2022-08-23T06:17:11;17.50;99.90
13742;DHT22;8461;52.356;10.704;2022-08-23T06:19:36;17.50;99.90
13742;DHT22;8461;52.356;10.704;2022-08-23T06:22:02;17.60;99.90
13742;DHT22;8461;52.356;10.704;2022-08-23T06:24:27;17.70;99.90
13742;DHT22;8461;52.356;10.704;2022-08-23T06:26:54;17.80;99.90
13742;DHT22;8461;52.356;10.704;2022-08-23T06:29:19;17.80;99.90
13742;DHT22;8461;52.356;10.704;2022-08-23T06:31:48;17.80;99.90
13742;DHT22;8461;52.356;10.704;2022-08-23T06:34:40;17.90;99.90
13742;DHT22;8461;52.356;10.704;2022-08-23T06:37:09;18.00;99.90
13742;DHT22;8461;52.356;10.704;2022-08-23T06:39:36;18.10;99.90
13742;DHT22;8461;52.356;10.704;2022-08-23T06:42:05;18.20;99.90
13742;DHT22;8461;52.356;10.704;2022-08-23T06:44:32;18.20;99.90
13742;DHT22;8461;52.356;10.704;2022-08-23T06:46:58;18.30;99.90
13742;DHT22;8461;52.356;10.704;2022-08-23T06:49:24;18.40;99.90
13742;DHT22;8461;52.356;10.704;2022-08-23T06:51:53;18.50;99.90
13742;DHT22;8461;52.356;10.704;2022-08-23T06:54:22;18.60;99.90
13742;DHT22;8461;52.356;10.704;2022-08-23T06:56:48;18.70;99.90
13742;DHT22;8461;52.356;10.704;2022-08-23T06:59:15;18.70;99.90
13742;DHT22;8461;52.356;10.704;2022-08-23T07:01:56;18.80;99.90
13742;DHT22;8461;52.356;10.704;2022-08-23T07:04:28;18.90;99.90
13742;DHT22;8461;52.356;10.704;2022-08-23T07:06:55;19.10;99.90
13742;DHT22;8461;52.356;10.704;2022-08-23T07:09:22;19.20;99.90
13742;DHT22;8461;52.356;10.704;2022-08-23T07:11:47;19.20;99.90
13742;DHT22;8461;52.356;10.704;2022-08-23T07:14:15;19.30;99.90
13742;DHT22;8461;52.356;10.704;2022-08-23T07:16:45;19.30;99.90
13742;DHT22;8461;52.356;10.704;2022-08-23T07:19:13;19.50;99.90
13742;DHT22;8461;52.356;10.704;2022-08-23T07:21:40;19.60;99.90
13742;DHT22;8461;52.356;10.704;2022-08-23T07:24:05;19.70;99.90
13742;DHT22;8461;52.356;10.704;2022-08-23T07:26:31;19.80;99.90
13742;DHT22;8461;52.356;10.704;2022-08-23T07:28:57;19.90;99.90
13742;DHT22;8461;52.356;10.704;2022-08-23T07:33:52;20.00;99.90
13742;DHT22;8461;52.356;10.704;2022-08-23T07:36:20;20.10;99.90
13742;DHT22;8461;52.356;10.704;2022-08-23T07:38:47;20.20;99.90
13742;DHT22;8461;52.356;10.704;2022-08-23T07:41:13;20.20;99.90
13742;DHT22;8461;52.356;10.704;2022-08-23T07:43:39;20.30;99.90
13742;DHT22;8461;52.356;10.704;2022-08-23T07:46:06;20.30;99.90
13742;DHT22;8461;52.356;10.704;2022-08-23T07:48:32;20.40;99.90
13742;DHT22;8461;52.356;10.704;2022-08-23T07:51:00;20.40;99.90
13742;DHT22;8461;52.356;10.704;2022-08-23T07:53:26;20.50;99.90
13742;DHT22;8461;52.356;10.704;2022-08-23T07:55:52;20.60;99.90
13742;DHT22;8461;52.356;10.704;2022-08-23T07:58:20;20.70;99.90
13742;DHT22;8461;52.356;10.704;2022-08-23T08:00:45;20.70;99.90
13742;DHT22;8461;52.356;10.704;2022-08-23T08:03:12;20.80;99.90
13742;DHT22;8461;52.356;10.704;2022-08-23T08:05:39;20.90;99.90
13742;DHT22;8461;52.356;10.704;2022-08-23T08:08:06;21.00;99.90
13742;DHT22;8461;52.356;10.704;2022-08-23T08:10:35;21.10;99.90
13742;DHT22;8461;52.356;10.704;2022-08-23T08:13:01;21.10;99.90
13742;DHT22;8461;52.356;10.704;2022-08-23T08:15:26;21.10;99.90
13742;DHT22;8461;52.356;10.704;2022-08-23T08:17:52;21.30;99.90
13742;DHT22;8461;52.356;10.704;2022-08-23T08:20:19;21.30;99.90
13742;DHT22;8461;52.356;10.704;2022-08-23T08:22:45;21.40;99.90
13742;DHT22;8461;52.356;10.704;2022-08-23T08:25:12;21.40;99.90
13742;DHT22;8461;52.356;10.704;2022-08-23T08:27:39;21.40;99.90
13742;DHT22;8461;52.356;10.704;2022-08-23T08:30:06;21.60;99.90
13742;DHT22;8461;52.356;10.704;2022-08-23T08:32:31;21.70;99.90
13742;DHT22;8461;52.356;10.704;2022-08-23T08:34:57;21.70;99.90
13742;DHT22;8461;52.356;10.704;2022-08-23T08:37:22;21.80;99.90
13742;DHT22;8461;52.356;10.704;2022-08-23T08:39:48;21.80;99.90
13742;DHT22;8461;52.356;10.704;2022-08-23T08:45:21;21.90;99.90
13742;DHT22;8461;52.356;10.704;2022-08-23T08:48:02;22.00;99.90
13742;DHT22;8461;52.356;10.704;2022-08-23T08:50:48;22.00;99.90
13742;DHT22;8461;52.356;10.704;2022-08-23T08:53:33;22.10;99.90
13742;DHT22;8461;52.356;10.704;2022-08-23T08:56:03;22.20;99.90
13742;DHT22;8461;52.356;10.704;2022-08-23T08:58:45;22.30;99.90
13742;DHT22;8461;52.356;10.704;2022-08-23T09:01:15;22.30;99.90
13742;DHT22;8461;52.356;10.704;2022-08-23T09:03:40;22.30;99.90
13742;DHT22;8461;52.356;10.704;2022-08-23T09:17:33;22.80;99.90
13742;DHT22;8461;52.356;10.704;2022-08-23T09:20:05;22.90;99.90
13742;DHT22;8461;52.356;10.704;2022-08-23T09:22:38;23.00;99.90
13742;DHT22;8461;52.356;10.704;2022-08-23T09:25:10;22.90;99.90
13742;DHT22;8461;52.356;10.704;2022-08-23T09:27:38;23.10;99.90
13742;DHT22;8461;52.356;10.704;2022-08-23T09:30:05;23.10;99.90
13742;DHT22;8461;52.356;10.704;2022-08-23T09:32:36;23.00;99.90
13742;DHT22;8461;52.356;10.704;2022-08-23T09:35:20;23.00;99.90
13742;DHT22;8461;52.356;10.704;2022-08-23T09:38:01;23.10;99.90
13742;DHT22;8461;52.356;10.704;2022-08-23T09:40:35;23.20;99.90
13742;DHT22;8461;52.356;10.704;2022-08-23T09:43:16;23.30;99.90
13742;DHT22;8461;52.356;10.704;2022-08-23T09:48:31;23.30;99.90
13742;DHT22;8461;52.356;10.704;2022-08-23T09:51:04;23.40;99.90
13742;DHT22;8461;52.356;10.704;2022-08-23T09:53:30;23.60;99.90
13742;DHT22;8461;52.356;10.704;2022-08-23T09:55:58;23.50;99.90
13742;DHT22;8461;52.356;10.704;2022-08-23T09:58:38;23.60;99.90
13742;DHT22;8461;52.356;10.704;2022-08-23T10:01:13;23.60;99.90
13742;DHT22;8461;52.356;10.704;2022-08-23T10:03:42;23.80;99.90
13742;DHT22;8461;52.356;10.704;2022-08-23T10:06:10;23.80;99.90
13742;DHT22;8461;52.356;10.704;2022-08-23T10:08:49;23.90;99.90
13742;DHT22;8461;52.356;10.704;2022-08-23T10:11:22;23.90;99.90
13742;DHT22;8461;52.356;10.704;2022-08-23T10:13:49;23.90;99.90
13742;DHT22;8461;52.356;10.704;2022-08-23T10:19:03;23.80;99.90
13742;DHT22;8461;52.356;10.704;2022-08-23T10:30:03;24.30;99.90
13742;DHT22;8461;52.356;10.704;2022-08-23T10:32:46;24.30;99.90
13742;DHT22;8461;52.356;10.704;2022-08-23T10:35:31;24.30;99.90
13742;DHT22;8461;52.356;10.704;2022-08-23T10:44:13;24.60;99.90
13742;DHT22;8461;52.356;10.704;2022-08-23T10:46:29;24.70;99.90
13742;DHT22;8461;52.356;10.704;2022-08-23T10:48:57;24.80;99.90
13742;DHT22;8461;52.356;10.704;2022-08-23T10:51:35;24.90;99.90
13742;DHT22;8461;52.356;10.704;2022-08-23T10:54:08;24.90;99.90
13742;DHT22;8461;52.356;10.704;2022-08-23T10:56:35;25.10;99.90
13742;DHT22;8461;52.356;10.704;2022-08-23T10:59:15;25.10;99.30
13742;DHT22;8461;52.356;10.704;2022-08-23T11:01:54;25.10;99.90
13742;DHT22;8461;52.356;10.704;2022-08-23T11:04:50;25.20;98.70
13742;DHT22;8461;52.356;10.704;2022-08-23T11:07:29;25.20;98.50
13742;DHT22;8461;52.356;10.704;2022-08-23T11:10:08;25.30;98.10
13742;DHT22;8461;52.356;10.704;2022-08-23T11:18:08;25.10;98.70
13742;DHT22;8461;52.356;10.704;2022-08-23T11:23:34;25.50;97.90
13742;DHT22;8461;52.356;10.704;2022-08-23T11:26:01;25.60;97.10
13742;DHT22;8461;52.356;10.704;2022-08-23T11:28:36;25.70;97.20
13742;DHT22;8461;52.356;10.704;2022-08-23T11:33:51;25.60;97.20
13742;DHT22;8461;52.356;10.704;2022-08-23T11:36:26;25.80;97.10
13742;DHT22;8461;52.356;10.704;2022-08-23T11:41:31;25.80;96.20
13742;DHT22;8461;52.356;10.704;2022-08-23T11:49:16;25.80;96.70
13742;DHT22;8461;52.356;10.704;2022-08-23T11:55:05;26.10;96.60
13742;DHT22;8461;52.356;10.704;2022-08-23T12:01:08;26.50;94.70
13742;DHT22;8461;52.356;10.704;2022-08-23T12:08:56;26.60;94.30
13742;DHT22;8461;52.356;10.704;2022-08-23T12:20:11;26.40;93.40
13742;DHT22;8461;52.356;10.704;2022-08-23T12:23:01;26.30;93.10
13742;DHT22;8461;52.356;10.704;2022-08-23T12:25:28;26.10;93.00
13742;DHT22;8461;52.356;10.704;2022-08-23T12:30:33;26.30;92.80
13742;DHT22;8461;52.356;10.704;2022-08-23T12:33:20;26.30;93.10
13742;DHT22;8461;52.356;10.704;2022-08-23T12:35:54;26.30;92.80
13742;DHT22;8461;52.356;10.704;2022-08-23T12:41:19;26.70;92.40
13742;DHT22;8461;52.356;10.704;2022-08-23T12:46:42;26.50;92.00
13742;DHT22;8461;52.356;10.704;2022-08-23T12:49:10;26.60;92.00
13742;DHT22;8461;52.356;10.704;2022-08-23T12:51:40;26.50;91.80
13742;DHT22;8461;52.356;10.704;2022-08-23T12:54:18;26.50;92.50
13742;DHT22;8461;52.356;10.704;2022-08-23T12:56:47;26.80;92.00
13742;DHT22;8461;52.356;10.704;2022-08-23T12:59:29;26.60;91.70
13742;DHT22;8461;52.356;10.704;2022-08-23T13:01:56;26.70;92.40
13742;DHT22;8461;52.356;10.704;2022-08-23T13:04:22;26.70;92.30
13742;DHT22;8461;52.356;10.704;2022-08-23T13:06:55;26.60;91.80
13742;DHT22;8461;52.356;10.704;2022-08-23T13:09:25;26.60;92.50
13742;DHT22;8461;52.356;10.704;2022-08-23T13:11:52;26.60;92.70
13742;DHT22;8461;52.356;10.704;2022-08-23T13:14:25;26.70;92.10
13742;DHT22;8461;52.356;10.704;2022-08-23T13:16:52;26.80;92.20
13742;DHT22;8461;52.356;10.704;2022-08-23T13:19:30;26.80;91.60
13742;DHT22;8461;52.356;10.704;2022-08-23T13:27:34;26.80;91.20
13742;DHT22;8461;52.356;10.704;2022-08-23T13:33:18;27.00;90.60
13742;DHT22;8461;52.356;10.704;2022-08-23T13:35:46;27.00;90.50
13742;DHT22;8461;52.356;10.704;2022-08-23T13:40:55;27.00;91.00
13742;DHT22;8461;52.356;10.704;2022-08-23T13:43:30;26.80;91.10
13742;DHT22;8461;52.356;10.704;2022-08-23T13:45:59;26.80;91.00
13742;DHT22;8461;52.356;10.704;2022-08-23T13:48:33;26.90;90.80
13742;DHT22;8461;52.356;10.704;2022-08-23T13:53:58;26.80;91.10
13742;DHT22;8461;52.356;10.704;2022-08-23T13:56:25;26.90;91.20
13742;DHT22;8461;52.356;10.704;2022-08-23T13:58:54;26.90;90.60
13742;DHT22;8461;52.356;10.704;2022-08-23T14:01:21;26.90;91.00
13742;DHT22;8461;52.356;10.704;2022-08-23T14:03:46;26.90;90.70
13742;DHT22;8461;52.356;10.704;2022-08-23T14:06:12;26.80;89.40
13742;DHT22;8461;52.356;10.704;2022-08-23T14:08:37;26.70;90.30
13742;DHT22;8461;52.356;10.704;2022-08-23T14:11:03;26.80;90.20
13742;DHT22;8461;52.356;10.704;2022-08-23T14:13:30;26.80;90.40
13742;DHT22;8461;52.356;10.704;2022-08-23T14:16:02;26.80;90.20
13742;DHT22;8461;52.356;10.704;2022-08-23T14:18:29;26.80;90.20
13742;DHT22;8461;52.356;10.704;2022-08-23T14:20:54;26.80;90.30
13742;DHT22;8461;52.356;10.704;2022-08-23T14:23:20;26.80;90.10
13742;DHT22;8461;52.356;10.704;2022-08-23T14:25:48;26.90;90.30
13742;DHT22;8461;52.356;10.704;2022-08-23T14:28:15;26.80;90.00
13742;DHT22;8461;52.356;10.704;2022-08-23T14:30:41;26.80;90.40
13742;DHT22;8461;52.356;10.704;2022-08-23T14:33:06;26.80;90.10
13742;DHT22;8461;52.356;10.704;2022-08-23T14:35:32;26.90;90.20
13742;DHT22;8461;52.356;10.704;2022-08-23T14:37:57;26.90;90.30
13742;DHT22;8461;52.356;10.704;2022-08-23T14:40:23;26.90;89.90
13742;DHT22;8461;52.356;10.704;2022-08-23T14:42:49;26.90;90.10
13742;DHT22;8461;52.356;10.704;2022-08-23T14:45:16;26.90;89.70
13742;DHT22;8461;52.356;10.704;2022-08-23T14:47:42;26.90;89.80
13742;DHT22;8461;52.356;10.704;2022-08-23T14:50:10;26.90;90.00
13742;DHT22;8461;52.356;10.704;2022-08-23T14:52:38;26.90;89.70
13742;DHT22;8461;52.356;10.704;2022-08-23T14:55:04;26.80;90.10
13742;DHT22;8461;52.356;10.704;2022-08-23T14:57:30;26.90;89.70
13742;DHT22;8461;52.356;10.704;2022-08-23T14:59:56;27.00;90.00
13742;DHT22;8461;52.356;10.704;2022-08-23T15:02:24;27.00;89.00
13742;DHT22;8461;52.356;10.704;2022-08-23T15:04:51;27.00;88.60
13742;DHT22;8461;52.356;10.704;2022-08-23T15:07:16;26.90;88.90
13742;DHT22;8461;52.356;10.704;2022-08-23T15:09:42;26.90;88.60
13742;DHT22;8461;52.356;10.704;2022-08-23T15:12:08;26.90;87.40
13742;DHT22;8461;52.356;10.704;2022-08-23T15:14:34;26.80;86.60
13742;DHT22;8461;52.356;10.704;2022-08-23T15:16:59;26.80;86.80
13742;DHT22;8461;52.356;10.704;2022-08-23T15:19:28;26.80;87.20
13742;DHT22;8461;52.356;10.704;2022-08-23T15:21:53;26.80;86.80
13742;DHT22;8461;52.356;10.704;2022-08-23T15:24:19;26.90;87.50
13742;DHT22;8461;52.356;10.704;2022-08-23T15:26:44;26.90;86.10
13742;DHT22;8461;52.356;10.704;2022-08-23T15:29:10;26.90;86.10
13742;DHT22;8461;52.356;10.704;2022-08-23T15:31:35;26.90;85.80
13742;DHT22;8461;52.356;10.704;2022-08-23T15:34:01;26.90;85.60
13742;DHT22;8461;52.356;10.704;2022-08-23T15:36:27;26.80;85.90
13742;DHT22;8461;52.356;10.704;2022-08-23T15:38:53;26.90;85.80
13742;DHT22;8461;52.356;10.704;2022-08-23T15:41:19;26.90;86.10
13742;DHT22;8461;52.356;10.704;2022-08-23T15:43:45;27.00;86.40
13742;DHT22;8461;52.356;10.704;2022-08-23T15:46:17;26.90;85.70
13742;DHT22;8461;52.356;10.704;2022-08-23T15:49:09;27.00;87.70
13742;DHT22;8461;52.356;10.704;2022-08-23T15:51:37;26.90;86.60
13742;DHT22;8461;52.356;10.704;2022-08-23T15:54:03;26.90;86.40
13742;DHT22;8461;52.356;10.704;2022-08-23T15:56:34;26.90;86.70
13742;DHT22;8461;52.356;10.704;2022-08-23T15:59:00;26.90;86.10
13742;DHT22;8461;52.356;10.704;2022-08-23T16:01:26;26.90;86.90
13742;DHT22;8461;52.356;10.704;2022-08-23T16:03:54;26.90;87.30
13742;DHT22;8461;52.356;10.704;2022-08-23T16:06:21;26.90;88.10
13742;DHT22;8461;52.356;10.704;2022-08-23T16:08:49;26.80;87.10
13742;DHT22;8461;52.356;10.704;2022-08-23T16:11:16;26.80;87.30
13742;DHT22;8461;52.356;10.704;2022-08-23T16:13:45;26.80;88.80
13742;DHT22;8461;52.356;10.704;2022-08-23T16:18:39;26.80;88.60
13742;DHT22;8461;52.356;10.704;2022-08-23T16:21:05;26.80;88.30
13742;DHT22;8461;52.356;10.704;2022-08-23T16:23:31;26.80;87.90
13742;DHT22;8461;52.356;10.704;2022-08-23T16:25:56;26.70;88.00
13742;DHT22;8461;52.356;10.704;2022-08-23T16:28:22;26.70;88.40
13742;DHT22;8461;52.356;10.704;2022-08-23T16:30:47;26.60;87.60
13742;DHT22;8461;52.356;10.704;2022-08-23T16:33:13;26.60;88.10
13742;DHT22;8461;52.356;10.704;2022-08-23T16:35:38;26.50;86.90
13742;DHT22;8461;52.356;10.704;2022-08-23T16:38:04;26.50;86.90
13742;DHT22;8461;52.356;10.704;2022-08-23T16:40:30;26.40;87.50
13742;DHT22;8461;52.356;10.704;2022-08-23T16:42:55;26.40;88.60
13742;DHT22;8461;52.356;10.704;2022-08-23T16:45:21;26.30;88.30
13742;DHT22;8461;52.356;10.704;2022-08-23T16:47:47;26.30;88.70
13742;DHT22;8461;52.356;10.704;2022-08-23T16:50:13;26.30;88.70
13742;DHT22;8461;52.356;10.704;2022-08-23T16:52:39;26.30;89.20
13742;DHT22;8461;52.356;10.704;2022-08-23T16:55:07;26.20;90.10
13742;DHT22;8461;52.356;10.704;2022-08-23T16:57:34;26.20;89.20
13742;DHT22;8461;52.356;10.704;2022-08-23T16:59:59;26.10;89.40
13742;DHT22;8461;52.356;10.704;2022-08-23T17:02:32;26.10;89.40
13742;DHT22;8461;52.356;10.704;2022-08-23T17:04:58;26.10;89.50
13742;DHT22;8461;52.356;10.704;2022-08-23T17:07:24;26.10;90.00
13742;DHT22;8461;52.356;10.704;2022-08-23T17:09:50;26.00;89.90
13742;DHT22;8461;52.356;10.704;2022-08-23T17:12:15;26.00;90.20
13742;DHT22;8461;52.356;10.704;2022-08-23T17:14:42;25.90;90.20
13742;DHT22;8461;52.356;10.704;2022-08-23T17:17:09;25.90;90.20
13742;DHT22;8461;52.356;10.704;2022-08-23T17:19:34;25.90;90.40
13742;DHT22;8461;52.356;10.704;2022-08-23T17:22:00;25.80;90.70
13742;DHT22;8461;52.356;10.704;2022-08-23T17:24:26;25.80;90.80